Tuesday, November 21, 2017, 10:39 AM EST
Back to Local

KASH, Nashua, Boire Field Airport

Location: Nashua, NH, United States Lat: 42.782
Local Time: 10:39 AM EST (15:39 GMT) Lon: -71.515
Time Zone: US/Eastern Elev: 200 ft

Show me the last for .
Show Decoded

2017-11-21 09:56 METAR KASH 211456Z 00000KT 10SM CLR 05/M03 A3008 RMK AO2 SLP196 T00501028 58004
                 =
2017-11-21 08:56 METAR KASH 211356Z VRB03KT 10SM CLR 02/M02 A3009 RMK AO2 SLP199 T00171017 =
2017-11-21 07:56 METAR KASH 211256Z 13004KT 10SM CLR M01/M02 A3010 RMK AO2 SLP204 T10111022 =
2017-11-21 06:56 METAR KASH 211156Z 00000KT 10SM CLR M04/M04 A3009 RMK AO2 SLP200 T10391044 10033
                 21044 53005 =
2017-11-21 05:56 METAR KASH 211056Z AUTO 00000KT 10SM CLR M04/M05 A3008 RMK AO2 SLP196 T10391050
                 =
2017-11-21 04:56 METAR KASH 210956Z AUTO 00000KT 10SM CLR M03/M04 A3006 RMK AO2 SLP192 T10281039
                 =
2017-11-21 03:56 METAR KASH 210856Z AUTO 00000KT 10SM CLR M02/M04 A3007 RMK AO2 SLP196 T10221044
                 51005 =
2017-11-21 02:56 METAR KASH 210756Z AUTO 00000KT 10SM CLR 00/M02 A3007 RMK AO2 SLP193 T00001022 =
2017-11-21 01:56 METAR KASH 210656Z AUTO 00000KT 10SM CLR 03/M02 A3007 RMK AO2 SLP194 T00281017 =
2017-11-21 00:56 METAR KASH 210556Z AUTO 00000KT 10SM OVC049 03/M02 A3006 RMK AO2 SLP190
                 T00331017 10039 20028 51009 =
2017-11-20 23:56 METAR KASH 210456Z AUTO 00000KT 10SM OVC049 03/M02 A3005 RMK AO2 SLP189
                 T00331017 =
2017-11-20 22:56 METAR KASH 210356Z AUTO 00000KT 10SM BKN035 OVC050 03/M03 A3005 RMK AO2 SLP187
                 T00331028 400501011 =
2017-11-20 21:56 METAR KASH 210256Z AUTO VRB03KT 10SM SCT042 OVC060 03/M03 A3003 RMK AO2 SLP181
                 T00331033 53019 =
2017-11-20 20:56 METAR KASH 210156Z VRB04KT 10SM OVC044 03/M04 A3001 RMK AO2 SLP174 T00331039 =
2017-11-20 19:56 METAR KASH 210056Z 25005KT 10SM BKN070 03/M04 A2999 RMK AO2 SLP168 T00281044 =
2017-11-20 18:56 METAR KASH 202356Z 27006KT 10SM SCT070 03/M06 A2998 RMK AO2 SLP162 T00281056
                 10050 20028 53019 =
2017-11-20 17:56 METAR KASH 202256Z 27007G12KT 10SM SCT070 03/M07 A2995 RMK AO2 SLP154 T00281067
                 =
2017-11-20 16:56 METAR KASH 202156Z COR 260/04G13KT 10SM BKN060 03/M07 A2993 RMK AO2 SLP147
                 T00281067 =
2017-11-20 15:56 METAR KASH 202056Z 28011G16KT 10SM BKN060 03/M07 A2992 RMK AO2 SLP143 T00331072
                 53014 =
2017-11-20 14:56 METAR KASH 201956Z COR 27016G31KT 10SM SCT049 03/M07 A2989 RMK AO2 SLP133
                 T00331072 =
2017-11-20 13:56 METAR KASH 201856Z 26010G22KT 10SM SCT060 04/M08 A2988 RMK AO2 SLP130 T00391078
                 =
2017-11-20 12:56 METAR KASH 201756Z COR 26008G15KT 220V300 10SM BKN070 04/M09 A2988 RMK AO2 PK
                 WND 30029/1723 SLP129 T00391094 10044 20000 53001 =
2017-11-20 11:56 METAR KASH 201656Z 31016G19KT 10SM FEW070 04/M11 A2987 RMK AO2 PK WND 30030/1611
                 SLP126 T00441106 =
2017-11-20 10:56 METAR KASH 201556Z 28011G20KT 230V310 10SM SCT065 03/M11 A2988 RMK AO2 SLP129
                 T00331111 =

Support USWX by starting your Amazon purchase here.